Search for airport 
image banner adimage banner adimage banner ad
image banner ad

PA04 - Brookville Hospital

Located in Brookville, United States

ICAO - PA04, IATA -

Data provided by Airmate  

General information

Coordinates: N41°9'23" W79°5'35"
Elevation is 1516 feet MSL.
Magnetic variation is -10° East
View others Airports in Pennsylvania

Operational data

Special qualification required
Current time UTC:
Current local time:
Weather at : KDUJ - Dubois Rgnl ( 16 km )
METAR: KDUJ 091553Z AUTO 11005KT 1/2SM SN FG BKN003 OVC011 01/00 A2997 RMK AO2 RAE29SNB29 SLP165 P0014 T00110000
TAF: KDUJ 091552Z 0916/1012 11007KT 5SM -RA BR OVC010 TEMPO 0916/0918 1SM -SN BKN005 FM091800 08010KT 3SM SHRA BR OVC005 FM100000 02008KT 4SM -SHRA BR OVC005 FM100500 36004KT P6SM BKN006 FM101000 29005KT P6SM BKN010
View NOTAMs / SUP AIP / TFR affecting this airport [VIEW]
Communications frequencies: [VIEW]

Runways:

Airport contact information

Address: Brookville United States

Satellite view of PA04